Port Lavaca, Texas
Current Conditions -  °F | °C
As of 6:50 AM on Friday 28 Nov 2014 (Local Time) from KPKV Reporting Station
Broken Clouds Broken Clouds  
Wind Chill: 50°   Ceiling: 5000
Heat Index: 50°   Visibility: 10mi
Dew Point: 49°   Wind: 3mph
Humidity: 97%   Direction: 70°ENE
Pressure: 30.32"   Gusts: NA
Location:  28.62°N, 96.62°W
Report Text: KPKV 281250Z AUTO 07003KT 10SM SCT043 BKN050 10/10 A3032 RMK AO2 T01000095
Loading
Personal Weather Stations






























Interactive Weather Map New forecast layout! Learn more

10-Day Weather Forecast

Advertisements
Track Severe Weather on mobile